Time;durP1;ratioP1;P1;durP2;ratioP2;P2;SDS_P1;SDS_P2;PMS_P1;PMS_P2;Temp;Humidity;BMP_temperature;BMP_pressure;BME280_temperature;BME280_humidity;BME280_pressure;Samples;Min_cycle;Max_cycle;Signal;HPM_P1;HPM_P2
2021/04/09 00:01:42;;;;;;;16.52;7.75;;;;;;;;;;5019683;28;20029;-87
2021/04/09 00:04:27;;;;;;;15.77;8.07;;;;;;;;;;5020582;28;20022;-86
2021/04/09 00:07:12;;;;;;;13.05;7.65;;;;;;;;;;5018441;28;20096;-86
2021/04/09 00:09:57;;;;;;;11.10;6.35;;;;;;;;;;5026740;28;20502;-86
2021/04/09 00:12:43;;;;;;;14.98;7.32;;;;;;;;;;5024709;28;20025;-86
2021/04/09 00:15:29;;;;;;;13.23;7.45;;;;;;;;;;5026092;28;20059;-86
2021/04/09 00:18:14;;;;;;;14.70;8.48;;;;;;;;;;5024356;28;20467;-86
2021/04/09 00:20:59;;;;;;;17.58;8.00;;;;;;;;;;5024691;28;20053;-89
2021/04/09 00:23:44;;;;;;;16.25;8.25;;;;;;;;;;5022255;28;20030;-88
2021/04/09 00:26:30;;;;;;;16.77;9.32;;;;;;;;;;5027839;28;20037;-88
2021/04/09 00:29:15;;;;;;;12.93;6.93;;;;;;;;;;5024391;28;20411;-89
2021/04/09 00:32:00;;;;;;;12.63;6.53;;;;;;;;;;5029181;28;20494;-87
2021/04/09 00:34:46;;;;;;;16.33;7.45;;;;;;;;;;5010910;28;20484;-88
2021/04/09 00:37:31;;;;;;;12.80;7.28;;;;;;;;;;5024344;28;20022;-87
2021/04/09 00:40:16;;;;;;;15.20;6.30;;;;;;;;;;5025879;28;20033;-86
2021/04/09 00:43:03;;;;;;;12.68;6.47;;;;;;;;;;5026713;28;20474;-86
2021/04/09 00:45:48;;;;;;;14.05;6.22;;;;;;;;;;5022872;28;20036;-86
2021/04/09 00:48:34;;;;;;;14.55;6.43;;;;;;;;;;5026904;28;20087;-86
2021/04/09 00:51:20;;;;;;;14.80;6.40;;;;;;;;;;5023885;28;20037;-86
2021/04/09 00:54:06;;;;;;;14.32;6.18;;;;;;;;;;5028339;28;20079;-85
2021/04/09 00:56:52;;;;;;;14.25;7.05;;;;;;;;;;5022865;28;20120;-86
2021/04/09 00:59:37;;;;;;;12.65;7.43;;;;;;;;;;5024071;28;20032;-86
2021/04/09 01:02:23;;;;;;;14.57;7.07;;;;;;;;;;5023954;28;20026;-86
2021/04/09 01:05:09;;;;;;;11.77;6.63;;;;;;;;;;5025714;28;20040;-86
2021/04/09 01:07:54;;;;;;;14.90;7.35;;;;;;;;;;5038964;28;20491;-86
2021/04/09 01:10:40;;;;;;;15.32;7.78;;;;;;;;;;5024380;28;20036;-86
2021/04/09 01:13:25;;;;;;;16.05;8.30;;;;;;;;;;5027508;28;20037;-86
2021/04/09 01:16:12;;;;;;;11.98;7.10;;;;;;;;;;5022187;28;20132;-87
2021/04/09 01:19:10;;;;;;;15.90;7.93;;;;;;;;;;5026342;28;20068;-87
2021/04/09 01:22:01;;;;;;;12.15;6.70;;;;;;;;;;5006377;28;20077;-86
2021/04/09 01:24:46;;;;;;;15.18;6.35;;;;;;;;;;5005645;28;20061;-87
2021/04/09 01:27:37;;;;;;;17.08;7.57;;;;;;;;;;5007695;28;20432;-87
2021/04/09 01:30:29;;;;;;;16.55;7.60;;;;;;;;;;5022029;28;20044;-87
2021/04/09 01:33:14;;;;;;;15.98;8.07;;;;;;;;;;5027624;28;20301;-87
2021/04/09 01:36:02;;;;;;;11.50;6.43;;;;;;;;;;5025732;28;20022;-86
2021/04/09 01:38:51;;;;;;;16.42;7.80;;;;;;;;;;5022447;28;20053;-87
2021/04/09 01:41:37;;;;;;;14.18;7.38;;;;;;;;;;5012348;28;20080;-86
2021/04/09 01:44:24;;;;;;;16.33;8.45;;;;;;;;;;5026398;28;20021;-87
2021/04/09 01:47:11;;;;;;;18.90;8.00;;;;;;;;;;5020621;28;20018;-87
2021/04/09 01:49:58;;;;;;;15.07;8.77;;;;;;;;;;5018423;28;20108;-88
2021/04/09 01:52:45;;;;;;;15.30;8.38;;;;;;;;;;5025130;28;20139;-87
2021/04/09 01:55:32;;;;;;;14.85;7.75;;;;;;;;;;5032860;28;20057;-87
2021/04/09 01:58:19;;;;;;;13.40;7.03;;;;;;;;;;5029313;28;20025;-88
2021/04/09 02:01:12;;;;;;;13.70;7.00;;;;;;;;;;5024412;28;20375;-87
2021/04/09 02:03:57;;;;;;;14.80;7.53;;;;;;;;;;5019068;28;20437;-87
2021/04/09 02:06:43;;;;;;;17.35;8.02;;;;;;;;;;5033096;28;20116;-86
2021/04/09 02:09:30;;;;;;;12.98;6.97;;;;;;;;;;5025304;28;20091;-88
2021/04/09 02:12:16;;;;;;;13.70;7.20;;;;;;;;;;5027590;28;20032;-88
2021/04/09 02:15:02;;;;;;;13.98;7.15;;;;;;;;;;5021119;28;20037;-89
2021/04/09 02:17:47;;;;;;;14.73;7.10;;;;;;;;;;5020025;28;20045;-87
2021/04/09 02:20:33;;;;;;;13.77;7.20;;;;;;;;;;5024322;28;20105;-88
2021/04/09 02:23:19;;;;;;;15.70;8.70;;;;;;;;;;5021174;28;20676;-88
2021/04/09 02:26:04;;;;;;;17.02;6.90;;;;;;;;;;5026619;28;20180;-86
2021/04/09 02:28:49;;;;;;;16.45;7.72;;;;;;;;;;5023229;28;20120;-87
2021/04/09 02:31:35;;;;;;;13.63;7.70;;;;;;;;;;5024506;28;20033;-88
2021/04/09 02:34:22;;;;;;;14.35;7.35;;;;;;;;;;5020854;28;20498;-87
2021/04/09 02:37:07;;;;;;;15.15;7.15;;;;;;;;;;5021421;28;20060;-88
2021/04/09 02:39:53;;;;;;;14.63;7.57;;;;;;;;;;5018695;28;20032;-87
2021/04/09 02:42:39;;;;;;;14.68;8.20;;;;;;;;;;5026392;28;20518;-85
2021/04/09 02:45:25;;;;;;;15.57;6.90;;;;;;;;;;5025905;28;20061;-85
2021/04/09 02:48:12;;;;;;;13.93;7.25;;;;;;;;;;5032085;28;20036;-86
2021/04/09 02:50:58;;;;;;;13.38;7.13;;;;;;;;;;5029451;28;20032;-85
2021/04/09 02:53:44;;;;;;;12.75;7.05;;;;;;;;;;5028715;28;20079;-86
2021/04/09 02:56:29;;;;;;;16.52;7.20;;;;;;;;;;5031048;28;20350;-88
2021/04/09 02:59:15;;;;;;;12.93;7.13;;;;;;;;;;5030458;28;20030;-85
2021/04/09 03:02:00;;;;;;;13.07;7.88;;;;;;;;;;5029328;28;20102;-87
2021/04/09 03:04:47;;;;;;;10.95;6.82;;;;;;;;;;5031751;28;20033;-87
2021/04/09 03:07:34;;;;;;;11.02;6.90;;;;;;;;;;5031166;28;20064;-86
2021/04/09 03:10:19;;;;;;;12.70;6.85;;;;;;;;;;5035113;28;20299;-87
2021/04/09 03:13:07;;;;;;;14.77;6.40;;;;;;;;;;5027105;28;20029;-85
2021/04/09 03:15:56;;;;;;;15.90;7.22;;;;;;;;;;5027499;28;20099;-86
2021/04/09 03:18:42;;;;;;;13.13;6.80;;;;;;;;;;5030604;28;20037;-89
2021/04/09 03:21:28;;;;;;;12.55;6.10;;;;;;;;;;5030572;28;20029;-88
2021/04/09 03:24:13;;;;;;;12.15;6.88;;;;;;;;;;5025605;28;20029;-87
2021/04/09 03:26:58;;;;;;;13.30;6.38;;;;;;;;;;5024391;28;20026;-86
2021/04/09 03:29:44;;;;;;;11.82;6.40;;;;;;;;;;5028477;28;20371;-86
2021/04/09 03:32:29;;;;;;;13.90;6.47;;;;;;;;;;5026363;28;20037;-85
2021/04/09 03:35:15;;;;;;;13.02;5.97;;;;;;;;;;5025133;28;20022;-89
2021/04/09 03:38:00;;;;;;;14.18;7.18;;;;;;;;;;5028481;28;20029;-87
2021/04/09 03:40:46;;;;;;;9.77;5.22;;;;;;;;;;5018154;28;20037;-86
2021/04/09 03:43:31;;;;;;;10.60;6.15;;;;;;;;;;5024246;28;20105;-87
2021/04/09 03:46:16;;;;;;;12.48;6.28;;;;;;;;;;5025469;28;20025;-86
2021/04/09 03:49:02;;;;;;;12.00;5.75;;;;;;;;;;5027149;28;20531;-86
2021/04/09 03:51:47;;;;;;;12.23;6.20;;;;;;;;;;5019231;28;20168;-86
2021/04/09 03:54:32;;;;;;;11.98;5.68;;;;;;;;;;5026768;28;20026;-86
2021/04/09 03:57:18;;;;;;;13.75;6.10;;;;;;;;;;5025644;28;20053;-88
2021/04/09 04:00:04;;;;;;;8.93;5.55;;;;;;;;;;5027124;28;20030;-86
2021/04/09 04:02:50;;;;;;;12.25;5.93;;;;;;;;;;5035584;28;20022;-86
2021/04/09 04:05:35;;;;;;;13.10;6.25;;;;;;;;;;5026557;28;20353;-85
2021/04/09 04:08:21;;;;;;;12.05;5.22;;;;;;;;;;5021270;28;20029;-86
2021/04/09 04:11:06;;;;;;;16.58;5.85;;;;;;;;;;5023721;28;20017;-84
2021/04/09 04:13:51;;;;;;;14.77;6.63;;;;;;;;;;5021768;28;20048;-87
2021/04/09 04:16:37;;;;;;;11.98;6.10;;;;;;;;;;5023477;28;20022;-88
2021/04/09 04:19:22;;;;;;;15.73;6.55;;;;;;;;;;5019494;28;20648;-87
2021/04/09 04:22:07;;;;;;;9.93;5.88;;;;;;;;;;5025091;28;20483;-87
2021/04/09 04:24:56;;;;;;;11.70;5.68;;;;;;;;;;5023473;28;20391;-88
2021/04/09 04:27:41;;;;;;;13.60;6.93;;;;;;;;;;5020497;28;20057;-87
2021/04/09 04:30:26;;;;;;;9.95;5.38;;;;;;;;;;5024995;28;20033;-85
2021/04/09 04:33:12;;;;;;;12.25;5.95;;;;;;;;;;5020038;28;20055;-88
2021/04/09 04:35:57;;;;;;;14.48;6.70;;;;;;;;;;5024355;28;20388;-85
2021/04/09 04:38:42;;;;;;;9.90;5.68;;;;;;;;;;5021131;28;20025;-89
2021/04/09 04:41:28;;;;;;;10.82;5.68;;;;;;;;;;5022933;28;20033;-88
2021/04/09 04:44:13;;;;;;;12.23;6.43;;;;;;;;;;5019815;28;20048;-87
2021/04/09 04:46:58;;;;;;;9.77;5.70;;;;;;;;;;5024058;28;20190;-87
2021/04/09 04:49:44;;;;;;;12.77;6.55;;;;;;;;;;5022624;28;20017;-90
2021/04/09 04:52:29;;;;;;;12.70;6.35;;;;;;;;;;5026787;28;20112;-89
2021/04/09 04:55:14;;;;;;;10.65;5.18;;;;;;;;;;5020734;28;20048;-86
2021/04/09 04:57:59;;;;;;;13.52;6.00;;;;;;;;;;5027485;28;20051;-86
2021/04/09 05:00:45;;;;;;;9.52;5.03;;;;;;;;;;5020742;28;20601;-88
2021/04/09 05:03:30;;;;;;;12.63;7.00;;;;;;;;;;5024256;28;20030;-88
2021/04/09 05:06:15;;;;;;;13.57;6.38;;;;;;;;;;5024362;28;20028;-88
2021/04/09 05:09:01;;;;;;;16.65;6.22;;;;;;;;;;5026557;28;20110;-88
2021/04/09 05:11:46;;;;;;;10.82;6.43;;;;;;;;;;5022851;28;20040;-86
2021/04/09 05:14:32;;;;;;;15.27;6.72;;;;;;;;;;5021315;28;20491;-90
2021/04/09 05:17:22;;;;;;;14.30;6.40;;;;;;;;;;5031604;28;20116;-90
2021/04/09 05:20:08;;;;;;;14.20;6.90;;;;;;;;;;5027522;28;20479;-88
2021/04/09 05:22:53;;;;;;;14.32;7.20;;;;;;;;;;5029060;28;20035;-90
2021/04/09 05:25:52;;;;;;;;;;;;;;;;;;;;;
2021/04/09 05:28:54;;;;;;;15.38;7.57;;;;;;;;;;5029322;28;20025;-86
2021/04/09 05:31:40;;;;;;;10.60;6.20;;;;;;;;;;5021467;28;20022;-86
2021/04/09 05:34:34;;;;;;;13.40;6.55;;;;;;;;;;5027319;28;20136;-88
2021/04/09 05:37:38;;;;;;;13.70;6.13;;;;;;;;;;5021857;28;20030;-90
2021/04/09 05:40:23;;;;;;;10.60;6.30;;;;;;;;;;5025759;28;20017;-86
2021/04/09 05:43:09;;;;;;;12.57;6.45;;;;;;;;;;5028037;28;20472;-84
2021/04/09 05:45:54;;;;;;;12.43;7.30;;;;;;;;;;5023786;28;20334;-85
2021/04/09 05:48:39;;;;;;;16.17;7.72;;;;;;;;;;5028412;28;20036;-86
2021/04/09 05:51:24;;;;;;;19.40;7.53;;;;;;;;;;5018337;28;20641;-83
2021/04/09 05:54:10;;;;;;;11.68;6.45;;;;;;;;;;5038392;28;20029;-84
2021/04/09 05:56:55;;;;;;;32.67;19.52;;;;;;;;;;5026276;28;20053;-83
2021/04/09 05:59:40;;;;;;;15.63;8.57;;;;;;;;;;5026283;28;20130;-82
2021/04/09 06:02:25;;;;;;;15.23;7.60;;;;;;;;;;5013490;28;20044;-82
2021/04/09 06:05:11;;;;;;;16.45;8.55;;;;;;;;;;5024321;28;20459;-82
2021/04/09 06:07:59;;;;;;;12.60;7.22;;;;;;;;;;5017919;28;20409;-83
2021/04/09 06:10:44;;;;;;;18.58;10.27;;;;;;;;;;5008513;28;20033;-83
2021/04/09 06:13:30;;;;;;;14.80;8.20;;;;;;;;;;5023090;28;20124;-82
2021/04/09 06:16:15;;;;;;;15.05;8.07;;;;;;;;;;5025950;28;20463;-85
2021/04/09 06:19:01;;;;;;;13.80;7.65;;;;;;;;;;5027379;28;20555;-84
2021/04/09 06:21:46;;;;;;;13.50;7.80;;;;;;;;;;5027170;28;20025;-86
2021/04/09 06:24:32;;;;;;;18.92;8.93;;;;;;;;;;5025803;28;20481;-83
2021/04/09 06:27:17;;;;;;;15.13;8.90;;;;;;;;;;5024074;28;20040;-82
2021/04/09 06:30:03;;;;;;;15.32;7.95;;;;;;;;;;5021734;28;20105;-81
2021/04/09 06:32:48;;;;;;;16.63;8.75;;;;;;;;;;5021503;28;20025;-82
2021/04/09 06:35:33;;;;;;;13.00;8.27;;;;;;;;;;5024733;28;20459;-83
2021/04/09 06:38:19;;;;;;;14.48;8.55;;;;;;;;;;5024369;28;20028;-83
2021/04/09 06:41:04;;;;;;;15.27;7.93;;;;;;;;;;5022436;28;20045;-82
2021/04/09 06:43:49;;;;;;;15.55;8.68;;;;;;;;;;5021230;28;20033;-84
2021/04/09 06:46:35;;;;;;;18.80;7.32;;;;;;;;;;5025164;28;20447;-84
2021/04/09 06:49:20;;;;;;;15.15;7.57;;;;;;;;;;5021928;28;20026;-85
2021/04/09 06:52:05;;;;;;;24.98;11.88;;;;;;;;;;5023296;28;20092;-83
2021/04/09 06:54:51;;;;;;;23.27;12.25;;;;;;;;;;5023017;28;20339;-81
2021/04/09 06:57:38;;;;;;;13.80;7.30;;;;;;;;;;5026134;28;20032;-81
2021/04/09 07:00:27;;;;;;;13.80;7.93;;;;;;;;;;5017449;28;20366;-82
2021/04/09 07:03:12;;;;;;;16.00;7.43;;;;;;;;;;5025039;28;20284;-83
2021/04/09 07:05:57;;;;;;;15.15;6.82;;;;;;;;;;5010272;28;20476;-82
2021/04/09 07:08:43;;;;;;;12.38;6.63;;;;;;;;;;5024064;28;20119;-81
2021/04/09 07:11:28;;;;;;;13.10;6.85;;;;;;;;;;5021693;28;20036;-80
2021/04/09 07:14:14;;;;;;;14.10;7.35;;;;;;;;;;5021742;28;20452;-81
2021/04/09 07:17:03;;;;;;;13.93;6.05;;;;;;;;;;5023249;28;20475;-81
2021/04/09 07:19:48;;;;;;;14.90;6.88;;;;;;;;;;5023356;28;20533;-83
2021/04/09 07:22:34;;;;;;;7.80;4.00;;;;;;;;;;5024027;28;20439;-81
2021/04/09 07:25:20;;;;;;;10.00;5.32;;;;;;;;;;5021581;28;20464;-82
2021/04/09 07:28:15;;;;;;;12.80;5.30;;;;;;;;;;5024752;28;20099;-83
2021/04/09 07:31:01;;;;;;;10.07;5.00;;;;;;;;;;5022587;28;20060;-81
2021/04/09 07:33:55;;;;;;;8.20;4.65;;;;;;;;;;5036499;28;20161;-81
2021/04/09 07:36:40;;;;;;;8.30;4.65;;;;;;;;;;5018924;28;20029;-81
2021/04/09 07:39:35;;;;;;;12.18;5.07;;;;;;;;;;5021085;28;20025;-83
2021/04/09 07:42:28;;;;;;;8.43;4.40;;;;;;;;;;5024407;28;20116;-81
2021/04/09 07:45:14;;;;;;;6.93;4.13;;;;;;;;;;5018254;28;20034;-81
2021/04/09 07:47:59;;;;;;;7.35;4.32;;;;;;;;;;5024357;28;20053;-81
2021/04/09 07:50:44;;;;;;;6.10;4.03;;;;;;;;;;5018156;28;20033;-83
2021/04/09 07:53:29;;;;;;;7.68;4.35;;;;;;;;;;5020730;28;20021;-84
2021/04/09 07:56:16;;;;;;;7.25;4.10;;;;;;;;;;5022827;28;20041;-81
2021/04/09 07:59:02;;;;;;;8.93;5.15;;;;;;;;;;5022255;28;20491;-81
2021/04/09 08:01:47;;;;;;;8.80;4.40;;;;;;;;;;5021266;28;20025;-79
2021/04/09 08:04:36;;;;;;;8.77;4.03;;;;;;;;;;5023445;28;20022;-79
2021/04/09 08:07:31;;;;;;;8.63;4.13;;;;;;;;;;5018008;28;20013;-79
2021/04/09 08:10:18;;;;;;;12.57;4.97;;;;;;;;;;5033062;28;20026;-80
2021/04/09 08:13:04;;;;;;;12.20;5.40;;;;;;;;;;5016916;28;20033;-80
2021/04/09 08:15:49;;;;;;;7.15;3.65;;;;;;;;;;5024497;28;20504;-80
2021/04/09 08:18:34;;;;;;;6.72;3.72;;;;;;;;;;5018820;28;20517;-80
2021/04/09 08:21:19;;;;;;;7.95;4.25;;;;;;;;;;5021672;28;20095;-79
2021/04/09 08:24:06;;;;;;;32.85;24.02;;;;;;;;;;5021341;28;20103;-77
2021/04/09 08:26:51;;;;;;;11.80;5.78;;;;;;;;;;5022651;28;20025;-80
2021/04/09 08:29:37;;;;;;;10.25;5.20;;;;;;;;;;5021252;28;20086;-80
2021/04/09 08:32:23;;;;;;;8.93;4.30;;;;;;;;;;5021385;28;20037;-79
2021/04/09 08:35:09;;;;;;;8.07;3.90;;;;;;;;;;5023140;28;20725;-79
2021/04/09 08:37:55;;;;;;;7.00;3.78;;;;;;;;;;5025371;28;20029;-79
2021/04/09 08:40:40;;;;;;;8.45;4.10;;;;;;;;;;5034102;28;20472;-79
2021/04/09 08:43:25;;;;;;;9.35;3.78;;;;;;;;;;5024632;28;20030;-79
2021/04/09 08:46:11;;;;;;;5.72;4.00;;;;;;;;;;5027476;28;20025;-79
2021/04/09 08:48:56;;;;;;;8.52;3.92;;;;;;;;;;5022748;28;20499;-79
2021/04/09 08:51:42;;;;;;;9.32;3.75;;;;;;;;;;5023348;28;20022;-79
2021/04/09 08:54:31;;;;;;;7.68;3.70;;;;;;;;;;5022911;28;20037;-78
2021/04/09 08:57:33;;;;;;;5.85;3.83;;;;;;;;;;5026617;28;20499;-79
2021/04/09 09:00:20;;;;;;;9.05;4.20;;;;;;;;;;5024655;28;20068;-78
2021/04/09 09:03:20;;;;;;;7.22;3.85;;;;;;;;;;5021736;28;20071;-79
2021/04/09 09:06:06;;;;;;;8.93;3.47;;;;;;;;;;5025984;28;20341;-81
2021/04/09 09:08:51;;;;;;;6.38;3.00;;;;;;;;;;5025474;28;20033;-79
2021/04/09 09:11:50;;;;;;;7.15;3.40;;;;;;;;;;5023653;28;20039;-78
2021/04/09 09:14:37;;;;;;;6.00;3.17;;;;;;;;;;5023698;28;20044;-80
2021/04/09 09:17:22;;;;;;;6.60;2.97;;;;;;;;;;5025324;28;20287;-81
2021/04/09 09:20:18;;;;;;;7.10;3.90;;;;;;;;;;5021282;28;20026;-80
2021/04/09 09:23:16;;;;;;;6.63;3.70;;;;;;;;;;5026173;28;20021;-80
2021/04/09 09:26:15;;;;;;;13.50;8.88;;;;;;;;;;5026887;28;20021;-79
2021/04/09 09:29:08;;;;;;;8.50;4.10;;;;;;;;;;5025932;28;20018;-80
2021/04/09 09:32:09;;;;;;;7.38;3.47;;;;;;;;;;5026202;28;20107;-80
2021/04/09 09:34:54;;;;;;;7.35;3.58;;;;;;;;;;5024484;28;20471;-80
2021/04/09 09:37:40;;;;;;;8.40;3.17;;;;;;;;;;5019940;28;20029;-80
2021/04/09 09:40:38;;;;;;;8.48;3.42;;;;;;;;;;5018655;28;20026;-80
2021/04/09 09:43:32;;;;;;;6.32;3.22;;;;;;;;;;5025780;28;20029;-80
2021/04/09 09:46:38;;;;;;;11.30;3.83;;;;;;;;;;5025493;28;20017;-80
2021/04/09 09:49:23;;;;;;;6.55;3.30;;;;;;;;;;5026828;28;20104;-80
2021/04/09 09:52:24;;;;;;;5.40;3.47;;;;;;;;;;5018982;28;20037;-81
2021/04/09 09:55:11;;;;;;;6.13;2.70;;;;;;;;;;5024739;28;20026;-81
2021/04/09 09:57:56;;;;;;;6.88;3.13;;;;;;;;;;5027471;28;20033;-80
2021/04/09 10:00:44;;;;;;;7.85;3.20;;;;;;;;;;5020990;28;20035;-81
2021/04/09 10:03:33;;;;;;;7.65;3.17;;;;;;;;;;5025370;28;20032;-81
2021/04/09 10:06:25;;;;;;;6.28;3.30;;;;;;;;;;5022536;28;20452;-81
2021/04/09 10:09:10;;;;;;;7.90;3.90;;;;;;;;;;5022351;28;20387;-80
2021/04/09 10:11:56;;;;;;;6.47;3.15;;;;;;;;;;5020265;28;20056;-80
2021/04/09 10:14:44;;;;;;;8.02;3.70;;;;;;;;;;5025656;28;20112;-80
2021/04/09 10:17:30;;;;;;;6.13;3.10;;;;;;;;;;5020064;28;20630;-81
2021/04/09 10:20:15;;;;;;;6.22;2.88;;;;;;;;;;5026243;28;20025;-81
2021/04/09 10:23:00;;;;;;;8.15;3.03;;;;;;;;;;5018568;28;20049;-80
2021/04/09 10:25:50;;;;;;;10.02;3.13;;;;;;;;;;5026030;28;20029;-81
2021/04/09 10:28:35;;;;;;;;;;;;;;;;;;5034062;28;20092;-80
2021/04/09 10:31:21;;;;;;;12.68;5.10;;;;;;;;;;5025418;28;19967;-81
2021/04/09 10:34:06;;;;;;;9.48;5.50;;;;;;;;;;5025333;28;20116;-80
2021/04/09 10:36:52;;;;;;;4.90;2.88;;;;;;;;;;5019888;28;20027;-80
2021/04/09 10:39:38;;;;;;;5.93;2.95;;;;;;;;;;5032160;28;20044;-80
2021/04/09 10:42:23;;;;;;;6.95;3.67;;;;;;;;;;5021319;28;20032;-79
2021/04/09 10:45:16;;;;;;;6.57;3.03;;;;;;;;;;5023571;28;20026;-79
2021/04/09 10:48:02;;;;;;;6.45;2.97;;;;;;;;;;5021708;28;20163;-79
2021/04/09 10:50:51;;;;;;;5.90;2.53;;;;;;;;;;5021355;28;20124;-80
2021/04/09 10:53:37;;;;;;;7.38;2.83;;;;;;;;;;5009414;28;20044;-79
2021/04/09 10:56:23;;;;;;;9.43;3.38;;;;;;;;;;5038889;28;20036;-80
2021/04/09 10:59:09;;;;;;;7.38;2.60;;;;;;;;;;5020486;28;20036;-80
2021/04/09 11:01:55;;;;;;;6.03;2.80;;;;;;;;;;5024241;28;20106;-80
2021/04/09 11:04:48;;;;;;;9.23;3.60;;;;;;;;;;5023650;28;20028;-79
2021/04/09 11:07:39;;;;;;;6.57;2.80;;;;;;;;;;5019964;28;20030;-80
2021/04/09 11:10:35;;;;;;;6.30;3.30;;;;;;;;;;5017939;28;20540;-81
2021/04/09 11:13:29;;;;;;;6.95;2.65;;;;;;;;;;5024084;28;20037;-80
2021/04/09 11:16:14;;;;;;;5.88;2.67;;;;;;;;;;5024530;28;20103;-82
2021/04/09 11:18:59;;;;;;;11.27;3.28;;;;;;;;;;5023449;28;20021;-80
2021/04/09 11:21:46;;;;;;;6.28;3.38;;;;;;;;;;5023807;28;20357;-80
2021/04/09 11:24:36;;;;;;;7.97;3.40;;;;;;;;;;5020832;28;20036;-81
2021/04/09 11:27:23;;;;;;;8.18;3.03;;;;;;;;;;5025038;28;20072;-80
2021/04/09 11:30:11;;;;;;;7.38;2.70;;;;;;;;;;5020565;28;20041;-80
2021/04/09 11:32:57;;;;;;;6.85;3.25;;;;;;;;;;5023208;28;20026;-81
2021/04/09 11:35:42;;;;;;;7.68;2.63;;;;;;;;;;5022682;28;20029;-80
2021/04/09 11:38:34;;;;;;;8.57;3.40;;;;;;;;;;5023639;28;20030;-81
2021/04/09 11:41:26;;;;;;;4.85;2.75;;;;;;;;;;5017673;28;20032;-81
2021/04/09 11:44:30;;;;;;;14.18;3.33;;;;;;;;;;5024421;28;20033;-80
2021/04/09 11:47:34;;;;;;;6.82;2.83;;;;;;;;;;5023007;28;20025;-81
2021/04/09 11:50:23;;;;;;;7.90;3.22;;;;;;;;;;5022230;28;20028;-79
2021/04/09 11:53:10;;;;;;;9.13;3.15;;;;;;;;;;5023656;28;20109;-79
2021/04/09 11:55:55;;;;;;;5.57;2.60;;;;;;;;;;5008299;28;20463;-79
2021/04/09 11:58:41;;;;;;;8.38;4.13;;;;;;;;;;5025427;28;20017;-79
2021/04/09 12:01:26;;;;;;;6.40;3.42;;;;;;;;;;5022083;28;20033;-79
2021/04/09 12:04:31;;;;;;;8.32;2.53;;;;;;;;;;5024086;28;20044;-78
2021/04/09 12:07:18;;;;;;;5.85;2.78;;;;;;;;;;5023271;28;20120;-78
2021/04/09 12:10:03;;;;;;;8.57;2.60;;;;;;;;;;5029041;28;20164;-81
2021/04/09 12:12:49;;;;;;;6.20;2.88;;;;;;;;;;5026466;28;20128;-81
2021/04/09 12:15:34;;;;;;;10.07;2.72;;;;;;;;;;5028378;28;20054;-81
2021/04/09 12:18:19;;;;;;;7.03;2.35;;;;;;;;;;5025585;28;20026;-82
2021/04/09 12:21:05;;;;;;;4.40;2.10;;;;;;;;;;5023266;28;20167;-82
2021/04/09 12:23:50;;;;;;;4.78;2.25;;;;;;;;;;5028090;28;20032;-81
2021/04/09 12:26:35;;;;;;;6.53;2.47;;;;;;;;;;5023278;28;20026;-81
2021/04/09 12:29:20;;;;;;;5.90;2.70;;;;;;;;;;5027553;28;20088;-82
2021/04/09 12:32:06;;;;;;;5.75;2.40;;;;;;;;;;5024575;28;20029;-81
2021/04/09 12:34:52;;;;;;;5.68;2.50;;;;;;;;;;5028189;28;20021;-82
2021/04/09 12:37:37;;;;;;;3.92;2.38;;;;;;;;;;5023202;28;20032;-81
2021/04/09 12:40:22;;;;;;;5.40;2.60;;;;;;;;;;5033725;28;20022;-81
2021/04/09 12:43:08;;;;;;;4.35;2.10;;;;;;;;;;5025110;28;20057;-81
2021/04/09 12:45:53;;;;;;;7.70;3.03;;;;;;;;;;5025997;28;20128;-84
2021/04/09 12:48:38;;;;;;;5.43;2.65;;;;;;;;;;5015879;28;20037;-81
2021/04/09 12:51:24;;;;;;;5.68;2.55;;;;;;;;;;5022646;28;20399;-80
2021/04/09 12:54:09;;;;;;;4.03;2.30;;;;;;;;;;5023841;28;20104;-79
2021/04/09 12:56:54;;;;;;;5.53;2.00;;;;;;;;;;5028101;28;20018;-79
2021/04/09 12:59:40;;;;;;;8.82;2.42;;;;;;;;;;5011706;28;20427;-79
2021/04/09 13:02:25;;;;;;;6.57;2.53;;;;;;;;;;5024968;28;20029;-78
2021/04/09 13:05:10;;;;;;;4.78;2.33;;;;;;;;;;5025725;28;20022;-81
2021/04/09 13:07:56;;;;;;;13.27;3.08;;;;;;;;;;5022261;28;20384;-80
2021/04/09 13:10:41;;;;;;;7.25;3.90;;;;;;;;;;5024576;28;20159;-80
2021/04/09 13:13:26;;;;;;;6.38;2.67;;;;;;;;;;5022956;28;20421;-80
2021/04/09 13:16:13;;;;;;;6.90;2.80;;;;;;;;;;5023884;28;20052;-80
2021/04/09 13:18:59;;;;;;;10.13;3.70;;;;;;;;;;5022775;28;20025;-80
2021/04/09 13:21:45;;;;;;;5.13;2.83;;;;;;;;;;5027394;28;20052;-81
2021/04/09 13:24:33;;;;;;;5.18;2.22;;;;;;;;;;5022865;28;20041;-82
2021/04/09 13:27:18;;;;;;;7.95;2.30;;;;;;;;;;5023075;28;20532;-81
2021/04/09 13:30:04;;;;;;;8.82;3.25;;;;;;;;;;5020813;28;20188;-80
2021/04/09 13:32:49;;;;;;;9.68;5.65;;;;;;;;;;5021314;28;20423;-83
2021/04/09 13:35:35;;;;;;;4.65;2.70;;;;;;;;;;5017825;28;20018;-80
2021/04/09 13:38:20;;;;;;;8.98;3.25;;;;;;;;;;5017495;28;20025;-83
2021/04/09 13:41:06;;;;;;;6.15;3.00;;;;;;;;;;5020843;28;20079;-84
2021/04/09 13:43:53;;;;;;;7.78;2.58;;;;;;;;;;5024658;28;20040;-80
2021/04/09 13:46:38;;;;;;;6.38;2.53;;;;;;;;;;5023731;28;20488;-82
2021/04/09 13:49:23;;;;;;;4.18;2.00;;;;;;;;;;5021724;28;20538;-83
2021/04/09 13:52:08;;;;;;;4.50;2.20;;;;;;;;;;5026327;28;20224;-80
2021/04/09 13:54:54;;;;;;;5.72;2.70;;;;;;;;;;5025873;28;20740;-80
2021/04/09 13:57:19;;;;;;;8.35;3.60;;;;;;;;;;5021223;28;20033;-81
2021/04/09 14:00:04;;;;;;;7.22;2.45;;;;;;;;;;5024974;28;20084;-81
2021/04/09 14:02:50;;;;;;;7.65;1.73;;;;;;;;;;5023105;28;20486;-81
2021/04/09 14:05:35;;;;;;;3.75;1.85;;;;;;;;;;5037899;28;20745;-81
2021/04/09 14:08:22;;;;;;;3.38;1.77;;;;;;;;;;5023636;28;20034;-81
2021/04/09 14:11:07;;;;;;;3.28;1.88;;;;;;;;;;5026109;28;20132;-81
2021/04/09 14:13:52;;;;;;;4.55;1.92;;;;;;;;;;5018954;28;20061;-82
2021/04/09 14:16:37;;;;;;;4.55;2.33;;;;;;;;;;5022640;28;20152;-81
2021/04/09 14:19:25;;;;;;;10.45;2.38;;;;;;;;;;5023277;28;20475;-82
2021/04/09 14:22:10;;;;;;;5.20;2.20;;;;;;;;;;5022174;28;20025;-83
2021/04/09 14:24:57;;;;;;;3.97;1.90;;;;;;;;;;5026158;28;20472;-82
2021/04/09 14:27:45;;;;;;;9.23;2.30;;;;;;;;;;5021762;28;20039;-82
2021/04/09 14:30:30;;;;;;;4.22;2.38;;;;;;;;;;5022077;28;20025;-82
2021/04/09 14:33:15;;;;;;;4.38;2.08;;;;;;;;;;5021909;28;20104;-82
2021/04/09 14:36:01;;;;;;;6.25;2.00;;;;;;;;;;5028307;28;20025;-82
2021/04/09 14:38:46;;;;;;;8.77;2.38;;;;;;;;;;5020913;28;20035;-82
2021/04/09 14:41:31;;;;;;;5.25;2.15;;;;;;;;;;5026625;28;20029;-81
2021/04/09 14:44:17;;;;;;;4.93;2.20;;;;;;;;;;5029392;28;20120;-82
2021/04/09 14:47:02;;;;;;;6.35;2.30;;;;;;;;;;5020985;28;20033;-81
2021/04/09 14:49:47;;;;;;;6.70;3.63;;;;;;;;;;5020361;28;20038;-82
2021/04/09 14:52:33;;;;;;;11.25;4.07;;;;;;;;;;5036771;28;20112;-83
2021/04/09 14:55:18;;;;;;;4.60;2.03;;;;;;;;;;5036736;28;20024;-79
2021/04/09 14:58:03;;;;;;;7.63;2.33;;;;;;;;;;5023173;28;20037;-79
2021/04/09 15:00:48;;;;;;;6.07;2.05;;;;;;;;;;5020149;28;20148;-80
2021/04/09 15:03:33;;;;;;;4.82;1.80;;;;;;;;;;5021189;28;20630;-82
2021/04/09 15:06:19;;;;;;;6.90;2.15;;;;;;;;;;5021121;28;20029;-84
2021/04/09 15:09:06;;;;;;;5.28;2.05;;;;;;;;;;5033776;28;20025;-80
2021/04/09 15:11:51;;;;;;;3.20;1.60;;;;;;;;;;5024044;28;20018;-82
2021/04/09 15:14:36;;;;;;;4.85;1.98;;;;;;;;;;5011484;28;20090;-83
2021/04/09 15:17:22;;;;;;;4.50;1.95;;;;;;;;;;5019623;28;20083;-83
2021/04/09 15:20:07;;;;;;;5.55;2.00;;;;;;;;;;5021717;28;20025;-82
2021/04/09 15:22:53;;;;;;;5.10;2.10;;;;;;;;;;5021008;28;20503;-83
2021/04/09 15:25:38;;;;;;;3.35;1.83;;;;;;;;;;5022083;28;20028;-82
2021/04/09 15:28:23;;;;;;;5.63;2.13;;;;;;;;;;5024838;28;20121;-83
2021/04/09 15:31:09;;;;;;;6.45;1.88;;;;;;;;;;5022413;28;20021;-85
2021/04/09 15:33:54;;;;;;;6.68;2.05;;;;;;;;;;5025641;28;20759;-84
2021/04/09 15:36:39;;;;;;;8.32;3.97;;;;;;;;;;5021577;28;20029;-85
2021/04/09 15:39:24;;;;;;;5.85;2.30;;;;;;;;;;5020985;28;20068;-84
2021/04/09 15:42:10;;;;;;;6.15;2.25;;;;;;;;;;5026659;28;20076;-84
2021/04/09 15:44:55;;;;;;;4.75;1.98;;;;;;;;;;5023923;28;20036;-83
2021/04/09 15:47:42;;;;;;;7.38;3.00;;;;;;;;;;5025788;28;20033;-84
2021/04/09 15:50:27;;;;;;;4.90;2.20;;;;;;;;;;5020104;28;20025;-85
2021/04/09 15:53:12;;;;;;;6.13;2.10;;;;;;;;;;5015275;28;20029;-83
2021/04/09 15:55:57;;;;;;;7.05;1.92;;;;;;;;;;5017167;28;20087;-82
2021/04/09 15:58:43;;;;;;;4.50;1.92;;;;;;;;;;5020345;28;20627;-90
2021/04/09 16:01:29;;;;;;;5.80;2.40;;;;;;;;;;5020174;28;20427;-81
2021/04/09 16:04:15;;;;;;;8.95;2.88;;;;;;;;;;5021170;28;20041;-84
2021/04/09 16:07:00;;;;;;;5.40;1.80;;;;;;;;;;5021267;28;20068;-84
2021/04/09 16:09:45;;;;;;;4.85;2.05;;;;;;;;;;5023502;28;20049;-84
2021/04/09 16:12:31;;;;;;;4.47;1.73;;;;;;;;;;5021480;28;20031;-84
2021/04/09 16:15:18;;;;;;;8.98;2.30;;;;;;;;;;5020319;28;20042;-82
2021/04/09 16:18:06;;;;;;;5.53;1.90;;;;;;;;;;5020632;28;20036;-83
2021/04/09 16:20:52;;;;;;;12.23;7.03;;;;;;;;;;5024884;28;20036;-84
2021/04/09 16:23:37;;;;;;;12.35;7.18;;;;;;;;;;5019891;28;20021;-85
2021/04/09 16:26:22;;;;;;;4.55;2.28;;;;;;;;;;5014191;28;20033;-85
2021/04/09 16:29:07;;;;;;;4.30;1.83;;;;;;;;;;5020530;28;20432;-84
2021/04/09 16:31:53;;;;;;;5.32;1.90;;;;;;;;;;5017869;28;20121;-84
2021/04/09 16:34:38;;;;;;;4.95;2.17;;;;;;;;;;5024400;28;20021;-84